Time;durP1;ratioP1;P1;durP2;ratioP2;P2;SDS_P1;SDS_P2;PMS_P1;PMS_P2;Temp;Humidity;BMP_temperature;BMP_pressure;BME280_temperature;BME280_humidity;BME280_pressure;Samples;Min_cycle;Max_cycle;Signal;HPM_P1;HPM_P2
2021/01/06 00:00:55;;;;;;;98.53;55.97;;;;;;;;;;4408714;32;20328;-55
2021/01/06 00:03:23;;;;;;;137.33;63.30;;;;;;;;;;4405267;32;20919;-55
2021/01/06 00:05:55;;;;;;;119.37;67.70;;;;;;;;;;4409676;32;20304;-55
2021/01/06 00:08:23;;;;;;;143.87;73.37;;;;;;;;;;4412155;32;20201;-55
2021/01/06 00:10:53;;;;;;;144.77;78.10;;;;;;;;;;4411050;32;20357;-56
2021/01/06 00:13:18;;;;;;;157.73;81.90;;;;;;;;;;4416505;32;20754;-57
2021/01/06 00:15:45;;;;;;;168.80;84.27;;;;;;;;;;4416991;32;20290;-56
2021/01/06 00:18:11;;;;;;;158.57;83.03;;;;;;;;;;4416970;32;20845;-56
2021/01/06 00:20:36;;;;;;;161.70;83.27;;;;;;;;;;4415697;32;20208;-56
2021/01/06 00:23:02;;;;;;;158.27;82.73;;;;;;;;;;4416509;32;20532;-55
2021/01/06 00:25:33;;;;;;;161.70;83.83;;;;;;;;;;4407744;32;20342;-55
2021/01/06 00:28:00;;;;;;;143.40;75.33;;;;;;;;;;4416222;32;20227;-55
2021/01/06 00:30:39;;;;;;;145.47;77.07;;;;;;;;;;4408184;32;20760;-55
2021/01/06 00:33:07;;;;;;;129.97;69.70;;;;;;;;;;4404193;32;20300;-54
2021/01/06 00:35:33;;;;;;;109.43;60.83;;;;;;;;;;4411571;32;20341;-55
2021/01/06 00:37:59;;;;;;;99.50;53.07;;;;;;;;;;4415976;32;20275;-55
2021/01/06 00:40:28;;;;;;;95.47;52.60;;;;;;;;;;4413920;32;20290;-55
2021/01/06 00:43:02;;;;;;;110.50;59.97;;;;;;;;;;4410409;32;20253;-54
2021/01/06 00:45:28;;;;;;;102.83;56.97;;;;;;;;;;4406341;32;20318;-55
2021/01/06 00:47:54;;;;;;;93.87;54.70;;;;;;;;;;4409057;32;20297;-55
2021/01/06 00:50:22;;;;;;;103.00;56.20;;;;;;;;;;4412350;32;20247;-54
2021/01/06 00:52:48;;;;;;;105.83;54.83;;;;;;;;;;4413949;32;20646;-54
2021/01/06 00:55:14;;;;;;;104.67;59.53;;;;;;;;;;4416953;32;20258;-56
2021/01/06 00:57:39;;;;;;;104.10;60.60;;;;;;;;;;4416590;32;20752;-57
2021/01/06 01:00:12;;;;;;;111.00;62.53;;;;;;;;;;4414608;32;20320;-54
2021/01/06 01:02:37;;;;;;;103.80;60.70;;;;;;;;;;4416243;32;20213;-56
2021/01/06 01:05:03;;;;;;;99.27;58.87;;;;;;;;;;4416511;32;20235;-55
2021/01/06 01:07:29;;;;;;;116.20;61.50;;;;;;;;;;4416331;32;20679;-54
2021/01/06 01:09:54;;;;;;;117.97;65.37;;;;;;;;;;4404423;32;20313;-55
2021/01/06 01:12:22;;;;;;;145.50;78.37;;;;;;;;;;4416397;32;20731;-54
2021/01/06 01:14:51;;;;;;;144.73;76.63;;;;;;;;;;4409518;32;20513;-55
2021/01/06 01:17:20;;;;;;;163.90;83.80;;;;;;;;;;4411904;32;20220;-54
2021/01/06 01:19:45;;;;;;;172.47;89.63;;;;;;;;;;4415103;32;20247;-55
2021/01/06 01:22:11;;;;;;;163.57;89.57;;;;;;;;;;4407859;32;20320;-54
2021/01/06 01:24:36;;;;;;;161.47;86.73;;;;;;;;;;4413202;32;20740;-55
2021/01/06 01:27:02;;;;;;;168.27;85.47;;;;;;;;;;4406662;32;20367;-55
2021/01/06 01:29:28;;;;;;;167.60;89.33;;;;;;;;;;4412071;32;20335;-55
2021/01/06 01:31:53;;;;;;;170.10;89.47;;;;;;;;;;4395388;32;20221;-54
2021/01/06 01:34:18;;;;;;;226.17;115.50;;;;;;;;;;4412587;32;20630;-53
2021/01/06 01:36:51;;;;;;;221.70;110.20;;;;;;;;;;4406196;32;20283;-53
2021/01/06 01:39:18;;;;;;;203.27;106.27;;;;;;;;;;4413394;32;20245;-53
2021/01/06 01:41:44;;;;;;;200.57;101.30;;;;;;;;;;4409104;32;20748;-54
2021/01/06 01:44:14;;;;;;;142.73;84.47;;;;;;;;;;4413034;32;20217;-56
2021/01/06 01:46:43;;;;;;;130.17;75.03;;;;;;;;;;4411037;32;20319;-56
2021/01/06 01:49:17;;;;;;;128.63;74.90;;;;;;;;;;4414393;32;20221;-56
2021/01/06 01:51:53;;;;;;;132.10;74.93;;;;;;;;;;4404510;32;20258;-55
2021/01/06 01:54:19;;;;;;;117.13;65.30;;;;;;;;;;4416242;32;20224;-55
2021/01/06 01:56:54;;;;;;;121.20;64.93;;;;;;;;;;4412955;32;20249;-55
2021/01/06 01:59:45;;;;;;;112.20;61.60;;;;;;;;;;4408041;32;20297;-56
2021/01/06 02:02:19;;;;;;;105.03;60.23;;;;;;;;;;4405827;32;20209;-56
2021/01/06 02:04:51;;;;;;;107.67;61.23;;;;;;;;;;4391778;32;20233;-56
2021/01/06 02:07:22;;;;;;;97.27;56.10;;;;;;;;;;4405223;32;20662;-54
2021/01/06 02:10:04;;;;;;;102.73;59.53;;;;;;;;;;4405947;32;20217;-55
2021/01/06 02:12:47;;;;;;;113.60;60.57;;;;;;;;;;4404802;32;20279;-55
2021/01/06 02:15:29;;;;;;;106.03;58.37;;;;;;;;;;4417566;32;20351;-55
2021/01/06 02:17:55;;;;;;;100.77;60.23;;;;;;;;;;4414687;32;20653;-55
2021/01/06 02:20:24;;;;;;;112.07;65.60;;;;;;;;;;4412494;32;20425;-55
2021/01/06 02:22:51;;;;;;;127.03;66.40;;;;;;;;;;4409017;32;20256;-55
2021/01/06 02:25:17;;;;;;;151.23;85.17;;;;;;;;;;4415475;32;20355;-54
2021/01/06 02:27:43;;;;;;;156.07;87.80;;;;;;;;;;4405569;32;20294;-55
2021/01/06 02:30:11;;;;;;;172.93;93.43;;;;;;;;;;4412550;32;20336;-54
2021/01/06 02:32:36;;;;;;;182.90;94.13;;;;;;;;;;4402776;32;20821;-55
2021/01/06 02:35:05;;;;;;;178.00;95.30;;;;;;;;;;4412926;32;20299;-55
2021/01/06 02:37:31;;;;;;;190.43;99.77;;;;;;;;;;4415291;32;20263;-54
2021/01/06 02:39:56;;;;;;;192.20;98.43;;;;;;;;;;4396509;32;20237;-55
2021/01/06 02:42:22;;;;;;;206.83;105.17;;;;;;;;;;4414426;32;20693;-55
2021/01/06 02:44:47;;;;;;;172.57;93.13;;;;;;;;;;4413551;32;20366;-55
2021/01/06 02:47:15;;;;;;;169.77;88.43;;;;;;;;;;4413114;32;20304;-56
2021/01/06 02:49:41;;;;;;;158.03;89.17;;;;;;;;;;4415419;32;20256;-56
2021/01/06 02:52:16;;;;;;;162.37;86.67;;;;;;;;;;4415056;32;20296;-56
2021/01/06 02:54:44;;;;;;;212.47;131.63;;;;;;;;;;4414016;32;20359;-56
2021/01/06 02:57:12;;;;;;;224.90;139.30;;;;;;;;;;4412358;32;20236;-55
2021/01/06 02:59:41;;;;;;;177.67;103.93;;;;;;;;;;4414979;32;20889;-56
2021/01/06 03:02:10;;;;;;;177.13;93.83;;;;;;;;;;4415285;32;20292;-56
2021/01/06 03:04:39;;;;;;;158.87;85.37;;;;;;;;;;4414549;32;20212;-56
2021/01/06 03:07:06;;;;;;;157.40;86.53;;;;;;;;;;4415617;32;20255;-57
2021/01/06 03:09:41;;;;;;;156.60;84.03;;;;;;;;;;4415017;32;20399;-56
2021/01/06 03:12:19;;;;;;;149.60;78.50;;;;;;;;;;4411435;32;20379;-57
2021/01/06 03:14:44;;;;;;;163.87;90.70;;;;;;;;;;4404753;32;20233;-56
2021/01/06 03:17:13;;;;;;;172.03;87.60;;;;;;;;;;4414986;32;20272;-56
2021/01/06 03:19:43;;;;;;;151.40;80.07;;;;;;;;;;4414225;32;20340;-56
2021/01/06 03:22:12;;;;;;;163.03;87.77;;;;;;;;;;4415439;32;20229;-54
2021/01/06 03:24:48;;;;;;;152.80;82.50;;;;;;;;;;4414994;32;21214;-55
2021/01/06 03:27:14;;;;;;;153.83;84.83;;;;;;;;;;4415701;32;20699;-56
2021/01/06 03:29:43;;;;;;;180.23;97.03;;;;;;;;;;4413596;32;20308;-54
2021/01/06 03:32:27;;;;;;;174.10;101.07;;;;;;;;;;4411843;32;20680;-55
2021/01/06 03:35:21;;;;;;;207.77;122.03;;;;;;;;;;4412510;32;20747;-55
2021/01/06 03:38:07;;;;;;;203.73;116.27;;;;;;;;;;4404101;32;20229;-55
2021/01/06 03:40:37;;;;;;;201.60;120.93;;;;;;;;;;4389629;32;20264;-55
2021/01/06 03:43:06;;;;;;;204.20;115.67;;;;;;;;;;4416328;32;20794;-56
2021/01/06 03:45:34;;;;;;;180.50;102.90;;;;;;;;;;4418068;32;20245;-54
2021/01/06 03:48:26;;;;;;;184.10;107.57;;;;;;;;;;4417938;32;20650;-55
2021/01/06 03:50:55;;;;;;;170.07;103.50;;;;;;;;;;4390683;32;20644;-55
2021/01/06 03:53:33;;;;;;;163.37;102.30;;;;;;;;;;4404016;32;20651;-55
2021/01/06 03:56:06;;;;;;;151.03;94.67;;;;;;;;;;4414144;32;20295;-55
2021/01/06 03:58:38;;;;;;;157.47;95.87;;;;;;;;;;4407899;32;20279;-55
2021/01/06 04:01:41;;;;;;;135.30;87.63;;;;;;;;;;4408498;32;20443;-55
2021/01/06 04:04:25;;;;;;;152.40;90.23;;;;;;;;;;4387367;32;20399;-54
2021/01/06 04:06:53;;;;;;;158.50;96.10;;;;;;;;;;4417087;32;20693;-54
2021/01/06 04:09:30;;;;;;;167.80;101.30;;;;;;;;;;4417009;32;20364;-54
2021/01/06 04:12:07;;;;;;;165.83;101.67;;;;;;;;;;4405254;32;20559;-54
2021/01/06 04:14:33;;;;;;;172.93;101.53;;;;;;;;;;4412463;32;20304;-55
2021/01/06 04:17:22;;;;;;;166.77;102.17;;;;;;;;;;4417188;32;20426;-55
2021/01/06 04:19:52;;;;;;;149.30;90.07;;;;;;;;;;4417247;32;20318;-56
2021/01/06 04:22:40;;;;;;;159.60;91.80;;;;;;;;;;4417045;32;20222;-55
2021/01/06 04:25:13;;;;;;;172.87;102.37;;;;;;;;;;4416486;32;20217;-55
2021/01/06 04:27:40;;;;;;;195.20;111.37;;;;;;;;;;4408299;32;20326;-55
2021/01/06 04:30:12;;;;;;;216.60;127.07;;;;;;;;;;4415645;32;20732;-56
2021/01/06 04:32:37;;;;;;;192.03;113.40;;;;;;;;;;4417836;32;20320;-56
2021/01/06 04:35:08;;;;;;;178.37;106.37;;;;;;;;;;4416762;32;20646;-56
2021/01/06 04:37:33;;;;;;;169.20;101.87;;;;;;;;;;4418006;32;20215;-56
2021/01/06 04:39:59;;;;;;;190.03;106.43;;;;;;;;;;4416179;32;20217;-55
2021/01/06 04:42:25;;;;;;;165.00;101.53;;;;;;;;;;4417626;32;20311;-55
2021/01/06 04:45:17;;;;;;;165.97;97.23;;;;;;;;;;4416836;32;20225;-54
2021/01/06 04:48:12;;;;;;;157.77;93.07;;;;;;;;;;4416478;32;20243;-55
2021/01/06 04:51:00;;;;;;;157.93;95.33;;;;;;;;;;4416093;32;20295;-55
2021/01/06 04:54:04;;;;;;;157.07;94.83;;;;;;;;;;4417015;32;20216;-57
2021/01/06 04:56:47;;;;;;;151.83;90.07;;;;;;;;;;4415424;32;20228;-57
2021/01/06 04:59:44;;;;;;;124.27;71.13;;;;;;;;;;4416282;32;20286;-57
2021/01/06 05:02:27;;;;;;;125.73;71.53;;;;;;;;;;4408975;32;20300;-57
2021/01/06 05:05:03;;;;;;;114.90;70.60;;;;;;;;;;4413764;32;20308;-55
2021/01/06 05:07:28;;;;;;;123.93;72.27;;;;;;;;;;4414019;32;20319;-55
2021/01/06 05:10:07;;;;;;;123.10;72.30;;;;;;;;;;4416615;32;20303;-54
2021/01/06 05:12:44;;;;;;;114.13;69.73;;;;;;;;;;4416208;32;20220;-54
2021/01/06 05:15:09;;;;;;;119.53;72.30;;;;;;;;;;4402468;32;20316;-54
2021/01/06 05:17:36;;;;;;;125.93;74.00;;;;;;;;;;4415853;32;20289;-55
2021/01/06 05:20:04;;;;;;;137.70;77.90;;;;;;;;;;4416268;32;20795;-55
2021/01/06 05:22:29;;;;;;;121.13;76.13;;;;;;;;;;4416746;32;20516;-55
2021/01/06 05:24:56;;;;;;;131.47;80.17;;;;;;;;;;4416828;32;20313;-55
2021/01/06 05:27:27;;;;;;;129.53;74.87;;;;;;;;;;4415819;32;20236;-56
2021/01/06 05:29:58;;;;;;;120.87;69.07;;;;;;;;;;4416661;32;20217;-55
2021/01/06 05:32:24;;;;;;;106.83;61.07;;;;;;;;;;4410289;32;20312;-57
2021/01/06 05:34:55;;;;;;;92.00;54.50;;;;;;;;;;4416332;32;20217;-57
2021/01/06 05:37:22;;;;;;;97.23;58.97;;;;;;;;;;4408771;32;20241;-55
2021/01/06 05:39:49;;;;;;;119.90;66.23;;;;;;;;;;4415930;32;20403;-56
2021/01/06 05:42:24;;;;;;;114.57;69.27;;;;;;;;;;4416213;32;20247;-57
2021/01/06 05:44:52;;;;;;;115.60;68.47;;;;;;;;;;4415676;32;20250;-57
2021/01/06 05:47:31;;;;;;;120.43;70.73;;;;;;;;;;4415599;32;20316;-57
2021/01/06 05:50:02;;;;;;;120.97;66.80;;;;;;;;;;4414772;32;20265;-56
2021/01/06 05:52:32;;;;;;;106.30;63.70;;;;;;;;;;4416259;32;20571;-56
2021/01/06 05:55:01;;;;;;;126.97;74.27;;;;;;;;;;4402616;32;20386;-57
2021/01/06 05:58:10;;;;;;;157.80;88.70;;;;;;;;;;4416035;32;20205;-56
2021/01/06 06:00:52;;;;;;;136.27;77.47;;;;;;;;;;4385312;32;20476;-55
2021/01/06 06:03:36;;;;;;;99.90;62.00;;;;;;;;;;4413822;32;20259;-55
2021/01/06 06:06:16;;;;;;;89.03;53.60;;;;;;;;;;4402091;32;20301;-55
2021/01/06 06:08:59;;;;;;;82.50;48.30;;;;;;;;;;4413473;32;20221;-55
2021/01/06 06:11:37;;;;;;;72.27;41.27;;;;;;;;;;4416156;32;20243;-55
2021/01/06 06:14:31;;;;;;;93.70;49.10;;;;;;;;;;4415371;32;20312;-56
2021/01/06 06:17:08;;;;;;;218.23;124.87;;;;;;;;;;4414826;32;20237;-56
2021/01/06 06:19:58;;;;;;;79.77;48.17;;;;;;;;;;4413052;32;20273;-56
2021/01/06 06:22:29;;;;;;;135.03;79.87;;;;;;;;;;4415855;32;20218;-56
2021/01/06 06:25:05;;;;;;;128.67;75.53;;;;;;;;;;4415136;32;20683;-55
2021/01/06 06:27:52;;;;;;;123.10;68.00;;;;;;;;;;4415219;32;20781;-56
2021/01/06 06:30:25;;;;;;;107.03;61.57;;;;;;;;;;4400999;32;20319;-55
2021/01/06 06:32:51;;;;;;;139.83;76.50;;;;;;;;;;4413135;32;20641;-53
2021/01/06 06:35:32;;;;;;;150.27;78.87;;;;;;;;;;4413905;32;20268;-53
2021/01/06 06:38:00;;;;;;;173.30;87.50;;;;;;;;;;4406044;32;20263;-54
2021/01/06 06:40:45;;;;;;;180.20;87.80;;;;;;;;;;4411530;32;20334;-54
2021/01/06 06:43:24;;;;;;;164.50;83.17;;;;;;;;;;4412751;32;20320;-56
2021/01/06 06:46:00;;;;;;;184.00;96.43;;;;;;;;;;4411224;32;20286;-55
2021/01/06 06:48:42;;;;;;;159.40;84.80;;;;;;;;;;4411135;32;20237;-54
2021/01/06 06:51:26;;;;;;;192.27;90.13;;;;;;;;;;4407183;32;20237;-54
2021/01/06 06:54:10;;;;;;;215.57;94.97;;;;;;;;;;4415363;32;20695;-55
2021/01/06 06:56:55;;;;;;;156.20;90.57;;;;;;;;;;4415244;32;20379;-54
2021/01/06 06:59:52;;;;;;;189.27;108.23;;;;;;;;;;4412294;32;20474;-55
2021/01/06 07:02:17;;;;;;;184.63;110.53;;;;;;;;;;4405250;32;20702;-55
2021/01/06 07:04:47;;;;;;;174.60;108.73;;;;;;;;;;4413157;32;20339;-55
2021/01/06 07:07:41;;;;;;;146.13;84.03;;;;;;;;;;4413483;32;20225;-55
2021/01/06 07:10:19;;;;;;;163.47;92.33;;;;;;;;;;4409766;32;20678;-56
2021/01/06 07:12:46;;;;;;;134.87;76.60;;;;;;;;;;4414859;32;20287;-55
2021/01/06 07:15:27;;;;;;;118.47;64.90;;;;;;;;;;4414643;32;20221;-55
2021/01/06 07:17:52;;;;;;;144.53;83.57;;;;;;;;;;4407497;32;20232;-55
2021/01/06 07:20:37;;;;;;;119.10;71.43;;;;;;;;;;4405524;32;21200;-56
2021/01/06 07:23:12;;;;;;;105.43;65.80;;;;;;;;;;4392771;32;20368;-56
2021/01/06 07:25:41;;;;;;;323.10;168.03;;;;;;;;;;4400845;32;20272;-55
2021/01/06 07:28:14;;;;;;;146.57;86.27;;;;;;;;;;4408262;32;20272;-54
2021/01/06 07:30:43;;;;;;;120.50;73.37;;;;;;;;;;4412238;32;20339;-55
2021/01/06 07:33:35;;;;;;;88.90;58.07;;;;;;;;;;4402775;32;20790;-54
2021/01/06 07:36:22;;;;;;;81.97;50.77;;;;;;;;;;4404630;32;20300;-55
2021/01/06 07:38:49;;;;;;;73.23;46.90;;;;;;;;;;4408251;32;20217;-55
2021/01/06 07:41:16;;;;;;;78.37;45.57;;;;;;;;;;4408067;32;20507;-55
2021/01/06 07:44:16;;;;;;;83.43;51.87;;;;;;;;;;4405646;32;20333;-55
2021/01/06 07:47:07;;;;;;;89.57;55.80;;;;;;;;;;4414822;32;20200;-55
2021/01/06 07:49:41;;;;;;;120.93;67.13;;;;;;;;;;4408563;32;20694;-54
2021/01/06 07:52:28;;;;;;;99.87;61.53;;;;;;;;;;4413521;32;20221;-55
2021/01/06 07:55:06;;;;;;;76.67;49.67;;;;;;;;;;4412336;32;20313;-56
2021/01/06 07:57:49;;;;;;;74.80;48.10;;;;;;;;;;4413734;32;20232;-56
2021/01/06 08:00:24;;;;;;;113.07;62.80;;;;;;;;;;4413733;32;20240;-56
2021/01/06 08:02:59;;;;;;;93.67;55.90;;;;;;;;;;4411982;32;20209;-55
2021/01/06 08:05:27;;;;;;;92.93;51.97;;;;;;;;;;4413803;32;20255;-55
2021/01/06 08:08:04;;;;;;;84.97;49.23;;;;;;;;;;4414209;32;20280;-55
2021/01/06 08:10:31;;;;;;;96.43;53.53;;;;;;;;;;4410840;32;20381;-60
2021/01/06 08:13:17;;;;;;;102.57;60.33;;;;;;;;;;4403588;32;20863;-56
2021/01/06 08:15:45;;;;;;;105.40;62.70;;;;;;;;;;4407806;32;20209;-55
2021/01/06 08:18:16;;;;;;;95.80;59.93;;;;;;;;;;4403648;32;21103;-55
2021/01/06 08:20:52;;;;;;;124.67;70.80;;;;;;;;;;4413975;32;20286;-55
2021/01/06 08:23:28;;;;;;;125.73;75.40;;;;;;;;;;4411324;32;20367;-54
2021/01/06 08:26:01;;;;;;;133.70;77.03;;;;;;;;;;4411666;32;20365;-55
2021/01/06 08:28:30;;;;;;;93.07;53.47;;;;;;;;;;4412250;32;20382;-55
2021/01/06 08:31:09;;;;;;;107.30;61.67;;;;;;;;;;4416546;32;20295;-55
2021/01/06 08:33:47;;;;;;;81.77;50.43;;;;;;;;;;4412596;32;20244;-55
2021/01/06 08:36:20;;;;;;;83.53;50.33;;;;;;;;;;4416103;32;20248;-55
2021/01/06 08:38:45;;;;;;;113.07;61.10;;;;;;;;;;4415621;32;20217;-55
2021/01/06 08:41:18;;;;;;;141.27;83.57;;;;;;;;;;4416797;32;20598;-56
2021/01/06 08:43:45;;;;;;;174.83;100.33;;;;;;;;;;4411141;32;20382;-55
2021/01/06 08:46:41;;;;;;;97.37;60.27;;;;;;;;;;4415191;32;20349;-55
2021/01/06 08:49:24;;;;;;;102.37;61.50;;;;;;;;;;4403615;32;20224;-55
2021/01/06 08:51:54;;;;;;;117.23;66.57;;;;;;;;;;4405609;32;20257;-55
2021/01/06 08:54:37;;;;;;;109.30;65.37;;;;;;;;;;4414633;32;20686;-55
2021/01/06 08:57:18;;;;;;;94.63;51.77;;;;;;;;;;4409822;32;20824;-55
2021/01/06 08:59:44;;;;;;;76.70;47.93;;;;;;;;;;4412379;32;20744;-54
2021/01/06 09:02:22;;;;;;;75.70;48.53;;;;;;;;;;4416730;32;20280;-54
2021/01/06 09:04:48;;;;;;;68.47;41.83;;;;;;;;;;4413496;32;20225;-54
2021/01/06 09:07:19;;;;;;;50.97;33.83;;;;;;;;;;4415805;32;20333;-54
2021/01/06 09:10:18;;;;;;;84.10;49.73;;;;;;;;;;4409661;32;20217;-53
2021/01/06 09:13:08;;;;;;;45.73;30.97;;;;;;;;;;4416830;32;20684;-54
2021/01/06 09:15:53;;;;;;;116.73;67.53;;;;;;;;;;4414721;32;20611;-54
2021/01/06 09:18:24;;;;;;;144.47;85.97;;;;;;;;;;4411915;32;20690;-54
2021/01/06 09:21:09;;;;;;;102.90;61.13;;;;;;;;;;4405770;32;20623;-54
2021/01/06 09:23:34;;;;;;;99.13;63.57;;;;;;;;;;4413458;32;20266;-54
2021/01/06 09:26:01;;;;;;;125.10;75.63;;;;;;;;;;4416340;32;20217;-54
2021/01/06 09:28:30;;;;;;;97.47;58.83;;;;;;;;;;4411450;32;20217;-55
2021/01/06 09:30:56;;;;;;;155.07;85.07;;;;;;;;;;4416312;32;20299;-54
2021/01/06 09:33:32;;;;;;;121.23;70.33;;;;;;;;;;4413188;32;20684;-55
2021/01/06 09:35:59;;;;;;;110.57;63.73;;;;;;;;;;4402299;32;20221;-54
2021/01/06 09:38:40;;;;;;;92.40;54.47;;;;;;;;;;4409209;32;20652;-54
2021/01/06 09:41:10;;;;;;;72.10;44.83;;;;;;;;;;4412531;32;20305;-54
2021/01/06 09:43:59;;;;;;;84.47;51.53;;;;;;;;;;4409701;32;20237;-55
2021/01/06 09:46:39;;;;;;;78.17;48.60;;;;;;;;;;4406658;32;20324;-55
2021/01/06 09:49:10;;;;;;;81.33;47.47;;;;;;;;;;4403492;32;20229;-55
2021/01/06 09:51:40;;;;;;;85.13;45.33;;;;;;;;;;4409129;32;20234;-55
2021/01/06 09:54:09;;;;;;;53.83;33.30;;;;;;;;;;4413688;32;20335;-55
2021/01/06 09:56:35;;;;;;;74.27;39.60;;;;;;;;;;4415206;32;20358;-55
2021/01/06 09:59:15;;;;;;;76.93;46.43;;;;;;;;;;4414446;32;20583;-54
2021/01/06 10:02:20;;;;;;;48.90;29.33;;;;;;;;;;4415340;32;20293;-54
2021/01/06 10:04:48;;;;;;;19.13;12.07;;;;;;;;;;4405087;32;20693;-54
2021/01/06 10:07:58;;;;;;;24.10;14.20;;;;;;;;;;4414703;32;20228;-54
2021/01/06 10:10:30;;;;;;;18.13;9.03;;;;;;;;;;4389173;32;20236;-54
2021/01/06 10:12:58;;;;;;;21.63;8.10;;;;;;;;;;4415096;32;20216;-54
2021/01/06 10:15:42;;;;;;;5.83;4.00;;;;;;;;;;4409488;32;20296;-55
2021/01/06 10:18:14;;;;;;;3.97;2.90;;;;;;;;;;4408517;32;20382;-54
2021/01/06 10:21:01;;;;;;;9.53;5.93;;;;;;;;;;4414975;32;20543;-54
2021/01/06 10:23:33;;;;;;;14.53;5.93;;;;;;;;;;4414661;32;20272;-54
2021/01/06 10:26:42;;;;;;;6.00;2.73;;;;;;;;;;4414996;32;21722;-56
2021/01/06 10:29:15;;;;;;;6.33;3.30;;;;;;;;;;4413733;32;20674;-55
2021/01/06 10:32:11;;;;;;;7.70;2.90;;;;;;;;;;4414737;32;20339;-55
2021/01/06 10:34:41;;;;;;;13.30;5.80;;;;;;;;;;4414725;32;20212;-55
2021/01/06 10:37:15;;;;;;;10.03;4.57;;;;;;;;;;4415401;32;20205;-55
2021/01/06 10:39:51;;;;;;;16.10;5.20;;;;;;;;;;4413134;32;20232;-55
2021/01/06 10:42:16;;;;;;;13.93;5.23;;;;;;;;;;4414444;32;20273;-54
2021/01/06 10:45:00;;;;;;;12.37;5.73;;;;;;;;;;4403549;32;20721;-55
2021/01/06 10:47:31;;;;;;;14.90;6.80;;;;;;;;;;4407479;32;20255;-55
2021/01/06 10:50:15;;;;;;;9.03;5.70;;;;;;;;;;4402604;32;20230;-55
2021/01/06 10:53:08;;;;;;;8.10;4.20;;;;;;;;;;4409961;32;20233;-55
2021/01/06 10:56:09;;;;;;;12.47;3.80;;;;;;;;;;4409354;32;20316;-54
2021/01/06 10:58:58;;;;;;;7.00;3.53;;;;;;;;;;4363358;32;20222;-55
2021/01/06 11:01:26;;;;;;;8.27;4.27;;;;;;;;;;4404994;32;20301;-54
2021/01/06 11:04:11;;;;;;;7.77;3.50;;;;;;;;;;4414610;32;20244;-55
2021/01/06 11:06:52;;;;;;;5.43;2.83;;;;;;;;;;4405341;32;20450;-55
2021/01/06 11:09:20;;;;;;;8.47;4.00;;;;;;;;;;4410704;32;20336;-55
2021/01/06 11:11:51;;;;;;;6.30;2.03;;;;;;;;;;4403584;32;20744;-54
2021/01/06 11:14:46;;;;;;;4.10;2.90;;;;;;;;;;4411371;32;20297;-54
2021/01/06 11:17:17;;;;;;;10.87;3.50;;;;;;;;;;4403174;32;20228;-54
2021/01/06 11:19:46;;;;;;;4.70;2.47;;;;;;;;;;4413330;32;20327;-56
2021/01/06 11:22:32;;;;;;;6.87;3.67;;;;;;;;;;4407476;32;20209;-55
2021/01/06 11:24:58;;;;;;;7.23;2.30;;;;;;;;;;4412653;32;20289;-55
2021/01/06 11:27:37;;;;;;;4.63;2.97;;;;;;;;;;4406410;32;20630;-55
2021/01/06 11:30:18;;;;;;;4.27;2.57;;;;;;;;;;4413813;32;20283;-56
2021/01/06 11:32:43;;;;;;;7.83;4.40;;;;;;;;;;4414296;32;20273;-55
2021/01/06 11:35:15;;;;;;;7.67;2.57;;;;;;;;;;4413985;32;20312;-55
2021/01/06 11:37:42;;;;;;;3.90;1.83;;;;;;;;;;4402221;32;20822;-56
2021/01/06 11:40:14;;;;;;;4.10;2.67;;;;;;;;;;4413817;32;20329;-57
2021/01/06 11:42:55;;;;;;;6.63;3.07;;;;;;;;;;4413174;32;20692;-56
2021/01/06 11:45:25;;;;;;;4.63;2.00;;;;;;;;;;4410271;32;20394;-56
2021/01/06 11:47:53;;;;;;;3.97;1.93;;;;;;;;;;4401819;32;20705;-56
2021/01/06 11:50:43;;;;;;;3.93;1.63;;;;;;;;;;4409589;32;20322;-56
2021/01/06 11:53:22;;;;;;;6.67;2.77;;;;;;;;;;4410868;32;20843;-56
2021/01/06 11:56:04;;;;;;;5.73;3.30;;;;;;;;;;4404075;32;20419;-56
2021/01/06 11:58:43;;;;;;;6.60;3.73;;;;;;;;;;4411663;32;20772;-56
2021/01/06 12:01:27;;;;;;;14.90;9.77;;;;;;;;;;4413508;32;20405;-56
2021/01/06 12:04:03;;;;;;;6.93;4.10;;;;;;;;;;4413922;32;20681;-55
2021/01/06 12:06:47;;;;;;;7.50;3.50;;;;;;;;;;4408659;32;20725;-55
2021/01/06 12:09:32;;;;;;;52.83;34.80;;;;;;;;;;4413021;32;20216;-55
2021/01/06 12:12:22;;;;;;;18.47;10.37;;;;;;;;;;4403953;32;20259;-55
2021/01/06 12:15:08;;;;;;;24.27;16.57;;;;;;;;;;4415211;32;20213;-55
2021/01/06 12:17:41;;;;;;;14.67;7.90;;;;;;;;;;4402231;32;20334;-55
2021/01/06 12:20:23;;;;;;;11.87;7.10;;;;;;;;;;4406234;32;20591;-55
2021/01/06 12:23:13;;;;;;;100.17;65.27;;;;;;;;;;4413035;32;20327;-54
2021/01/06 12:25:45;;;;;;;10.13;5.17;;;;;;;;;;4415807;32;20267;-55
2021/01/06 12:28:46;;;;;;;16.67;6.60;;;;;;;;;;4413199;32;20738;-56
2021/01/06 12:31:34;;;;;;;11.50;7.67;;;;;;;;;;4415823;32;20722;-55
2021/01/06 12:34:05;;;;;;;9.77;3.70;;;;;;;;;;4402107;32;20260;-55
2021/01/06 12:36:55;;;;;;;11.60;6.23;;;;;;;;;;4407833;32;20249;-55
2021/01/06 12:39:49;;;;;;;24.90;12.90;;;;;;;;;;4411565;32;20252;-55
2021/01/06 12:42:17;;;;;;;53.97;24.23;;;;;;;;;;4407842;32;20224;-56
2021/01/06 12:44:50;;;;;;;278.97;102.87;;;;;;;;;;4410533;32;20736;-56
2021/01/06 12:47:24;;;;;;;23.03;13.30;;;;;;;;;;4416360;32;20582;-55
2021/01/06 12:50:25;;;;;;;48.13;24.43;;;;;;;;;;4413340;32;20315;-55
2021/01/06 12:52:57;;;;;;;20.17;9.90;;;;;;;;;;4392572;32;20620;-56
2021/01/06 12:55:32;;;;;;;23.10;10.23;;;;;;;;;;4416025;32;20267;-55
2021/01/06 12:57:59;;;;;;;54.23;26.80;;;;;;;;;;4417360;32;20197;-55
2021/01/06 13:00:40;;;;;;;88.47;44.73;;;;;;;;;;4411298;32;20221;-54
2021/01/06 13:03:25;;;;;;;15.73;8.33;;;;;;;;;;4404344;32;20324;-56
2021/01/06 13:05:58;;;;;;;23.53;13.70;;;;;;;;;;4411689;32;20263;-55
2021/01/06 13:08:49;;;;;;;77.47;45.33;;;;;;;;;;4403535;32;20244;-55
2021/01/06 13:11:48;;;;;;;15.20;8.20;;;;;;;;;;4414295;32;20271;-55
2021/01/06 13:14:16;;;;;;;15.83;5.53;;;;;;;;;;4406314;32;20236;-56
2021/01/06 13:17:01;;;;;;;17.97;10.13;;;;;;;;;;4412425;32;20359;-54
2021/01/06 13:19:39;;;;;;;18.97;10.83;;;;;;;;;;4410287;32;20233;-55
2021/01/06 13:22:25;;;;;;;9.50;4.30;;;;;;;;;;4416113;32;20282;-55
2021/01/06 13:25:07;;;;;;;7.07;4.53;;;;;;;;;;4408199;32;20270;-56
2021/01/06 13:27:51;;;;;;;15.00;6.70;;;;;;;;;;4416180;32;20519;-56
2021/01/06 13:30:16;;;;;;;10.63;4.83;;;;;;;;;;4413456;32;20213;-56
2021/01/06 13:32:49;;;;;;;9.73;3.43;;;;;;;;;;4415317;32;20293;-55
2021/01/06 13:35:30;;;;;;;50.50;33.13;;;;;;;;;;4405888;32;20353;-55
2021/01/06 13:38:26;;;;;;;9.27;4.97;;;;;;;;;;4414698;32;20205;-56
2021/01/06 13:40:55;;;;;;;22.93;13.40;;;;;;;;;;4402270;32;20582;-55
2021/01/06 13:43:29;;;;;;;78.77;46.57;;;;;;;;;;4414842;32;20453;-55
2021/01/06 13:46:09;;;;;;;19.90;11.17;;;;;;;;;;4413914;32;20525;-55
2021/01/06 13:48:37;;;;;;;40.40;19.50;;;;;;;;;;4413211;32;20229;-54
2021/01/06 13:51:16;;;;;;;42.07;18.93;;;;;;;;;;4412933;32;20299;-55
2021/01/06 13:53:48;;;;;;;19.10;8.93;;;;;;;;;;4404902;32;20252;-55
2021/01/06 13:56:50;;;;;;;24.80;12.73;;;;;;;;;;4414750;32;20224;-55
2021/01/06 13:59:39;;;;;;;22.20;8.90;;;;;;;;;;4413288;32;20220;-55
2021/01/06 14:02:16;;;;;;;30.23;17.07;;;;;;;;;;4412870;32;20601;-56
2021/01/06 14:04:56;;;;;;;8.77;5.77;;;;;;;;;;4404272;32;20294;-55
2021/01/06 14:07:59;;;;;;;21.93;11.67;;;;;;;;;;4417301;32;20246;-55
2021/01/06 14:10:55;;;;;;;19.90;9.43;;;;;;;;;;4417646;32;20304;-55
2021/01/06 14:13:42;;;;;;;15.07;9.07;;;;;;;;;;4416508;32;20704;-55
2021/01/06 14:16:36;;;;;;;15.80;8.77;;;;;;;;;;4410613;32;20240;-56
2021/01/06 14:19:42;;;;;;;8.30;5.27;;;;;;;;;;4386040;32;20265;-54
2021/01/06 14:22:17;;;;;;;26.17;9.03;;;;;;;;;;4387983;32;20464;-56
2021/01/06 14:24:51;;;;;;;22.47;12.27;;;;;;;;;;4413662;32;20461;-56
2021/01/06 14:27:42;;;;;;;17.97;9.20;;;;;;;;;;4416580;32;20279;-57
2021/01/06 14:30:13;;;;;;;5.33;3.67;;;;;;;;;;4416672;32;20276;-54
2021/01/06 14:32:55;;;;;;;5.87;4.53;;;;;;;;;;4417722;32;20221;-54
2021/01/06 14:35:27;;;;;;;29.93;17.43;;;;;;;;;;4416757;32;20217;-54
2021/01/06 14:38:26;;;;;;;10.93;6.77;;;;;;;;;;4416937;32;20788;-55
2021/01/06 14:41:20;;;;;;;10.73;7.23;;;;;;;;;;4412149;32;20197;-55
2021/01/06 14:43:53;;;;;;;4.83;3.53;;;;;;;;;;4415792;32;20593;-55
2021/01/06 14:46:29;;;;;;;5.97;3.80;;;;;;;;;;4416896;32;20330;-55
2021/01/06 14:49:07;;;;;;;15.17;7.43;;;;;;;;;;4416944;32;20661;-55
2021/01/06 14:52:01;;;;;;;10.50;6.07;;;;;;;;;;4417413;32;20561;-55
2021/01/06 14:54:58;;;;;;;12.43;7.07;;;;;;;;;;4380175;32;20218;-55
2021/01/06 14:57:57;;;;;;;17.97;7.53;;;;;;;;;;4417445;32;20594;-56
2021/01/06 15:00:31;;;;;;;30.03;15.23;;;;;;;;;;4412925;32;20273;-56
2021/01/06 15:03:15;;;;;;;40.43;17.20;;;;;;;;;;4402311;32;20508;-55
2021/01/06 15:05:55;;;;;;;19.60;9.83;;;;;;;;;;4408106;32;20221;-56